Calmer, Arkansas
Current Conditions -  °F | °C
As of 3:53 AM on Thursday 23 Oct 2014 (Local Time) from KPBF Reporting Station
Clear Clear  
Wind Chill:   Ceiling: Unl
Heat Index:   Visibility: 10mi
Dew Point:   Wind: 3mph
Humidity: 86%   Direction: 40°NE
Pressure: 30.15"   Gusts: NA
Location:  33.947°N, 92.1633°W
Report Text: KPBF 230853Z AUTO 04003KT 10SM CLR 09/07 A3015 RMK AO2 SLP209 T00890067 58008
Loading
Personal Weather Stations






























Interactive Weather Map
Tropical Storm Tracking
New forecast layout! Learn more

10-Day Weather Forecast

Advertisements
Track Severe Weather on mobile